sensor_id;sensor_type;location;lat;lon;timestamp;P1;durP1;ratioP1;P2;durP2;ratioP2
81901;SDS011;71369;50.796;3.290;2024-01-30T06:35:39;17.17;;;8.52;;
81901;SDS011;71369;50.796;3.290;2024-01-30T06:44:34;14.38;;;8.20;;
81901;SDS011;71369;50.796;3.290;2024-01-30T06:47:03;12.05;;;8.40;;
81901;SDS011;71369;50.796;3.290;2024-01-30T06:52:58;14.90;;;8.63;;
81901;SDS011;71369;50.796;3.290;2024-01-30T06:55:32;13.25;;;8.02;;
81901;SDS011;71369;50.796;3.290;2024-01-30T07:00:46;14.93;;;7.60;;
81901;SDS011;71369;50.796;3.290;2024-01-30T07:03:34;15.05;;;8.05;;
81901;SDS011;71369;50.796;3.290;2024-01-30T07:06:09;15.23;;;8.25;;
81901;SDS011;71369;50.796;3.290;2024-01-30T07:09:09;13.23;;;8.52;;
81901;SDS011;71369;50.796;3.290;2024-01-30T07:14:54;13.50;;;7.88;;
81901;SDS011;71369;50.796;3.290;2024-01-30T07:18:05;14.75;;;7.30;;
81901;SDS011;71369;50.796;3.290;2024-01-30T07:20:43;15.95;;;8.57;;
81901;SDS011;71369;50.796;3.290;2024-01-30T07:26:49;14.25;;;8.23;;
81901;SDS011;71369;50.796;3.290;2024-01-30T07:29:30;25.15;;;8.30;;
81901;SDS011;71369;50.796;3.290;2024-01-30T07:32:51;16.20;;;8.38;;
81901;SDS011;71369;50.796;3.290;2024-01-30T07:36:03;15.45;;;9.32;;
81901;SDS011;71369;50.796;3.290;2024-01-30T07:38:51;14.05;;;8.98;;
81901;SDS011;71369;50.796;3.290;2024-01-30T07:47:38;17.00;;;9.35;;
81901;SDS011;71369;50.796;3.290;2024-01-30T07:50:53;15.30;;;9.02;;
81901;SDS011;71369;50.796;3.290;2024-01-30T08:00:13;15.50;;;9.05;;
81901;SDS011;71369;50.796;3.290;2024-01-30T08:03:26;16.80;;;9.70;;
81901;SDS011;71369;50.796;3.290;2024-01-30T08:14:14;12.43;;;6.32;;
81901;SDS011;71369;50.796;3.290;2024-01-30T08:16:40;15.00;;;6.20;;
81901;SDS011;71369;50.796;3.290;2024-01-30T08:19:06;17.70;;;7.57;;
81901;SDS011;71369;50.796;3.290;2024-01-30T08:21:32;14.43;;;5.90;;
81901;SDS011;71369;50.796;3.290;2024-01-30T08:24:02;7.90;;;4.47;;
81901;SDS011;71369;50.796;3.290;2024-01-30T08:26:28;13.57;;;4.43;;
81901;SDS011;71369;50.796;3.290;2024-01-30T08:28:55;10.20;;;4.70;;
81901;SDS011;71369;50.796;3.290;2024-01-30T08:31:21;7.68;;;3.55;;
81901;SDS011;71369;50.796;3.290;2024-01-30T08:33:46;8.23;;;3.20;;
81901;SDS011;71369;50.796;3.290;2024-01-30T08:36:12;10.60;;;3.28;;
81901;SDS011;71369;50.796;3.290;2024-01-30T08:38:38;6.20;;;2.33;;
81901;SDS011;71369;50.796;3.290;2024-01-30T08:41:04;5.18;;;1.95;;
81901;SDS011;71369;50.796;3.290;2024-01-30T08:43:31;9.93;;;2.40;;
81901;SDS011;71369;50.796;3.290;2024-01-30T08:46:00;6.35;;;2.67;;
81901;SDS011;71369;50.796;3.290;2024-01-30T08:48:26;12.80;;;2.60;;
81901;SDS011;71369;50.796;3.290;2024-01-30T08:50:52;10.00;;;2.70;;
81901;SDS011;71369;50.796;3.290;2024-01-30T08:53:18;11.57;;;2.28;;
81901;SDS011;71369;50.796;3.290;2024-01-30T08:55:44;7.88;;;2.40;;
81901;SDS011;71369;50.796;3.290;2024-01-30T08:58:10;5.95;;;2.45;;
81901;SDS011;71369;50.796;3.290;2024-01-30T09:00:36;4.47;;;1.70;;
81901;SDS011;71369;50.796;3.290;2024-01-30T09:03:02;7.70;;;2.20;;
81901;SDS011;71369;50.796;3.290;2024-01-30T09:05:28;9.27;;;1.90;;
81901;SDS011;71369;50.796;3.290;2024-01-30T09:07:54;6.10;;;1.85;;
81901;SDS011;71369;50.796;3.290;2024-01-30T09:10:20;4.05;;;1.92;;
81901;SDS011;71369;50.796;3.290;2024-01-30T09:12:46;9.85;;;2.35;;
81901;SDS011;71369;50.796;3.290;2024-01-30T09:15:12;10.25;;;1.98;;
81901;SDS011;71369;50.796;3.290;2024-01-30T09:17:38;6.47;;;1.90;;
81901;SDS011;71369;50.796;3.290;2024-01-30T09:20:04;8.43;;;1.90;;
81901;SDS011;71369;50.796;3.290;2024-01-30T09:22:30;4.63;;;1.95;;
81901;SDS011;71369;50.796;3.290;2024-01-30T09:24:56;6.85;;;1.75;;
81901;SDS011;71369;50.796;3.290;2024-01-30T09:27:22;4.75;;;1.65;;
81901;SDS011;71369;50.796;3.290;2024-01-30T09:29:48;5.47;;;1.77;;
81901;SDS011;71369;50.796;3.290;2024-01-30T09:32:14;17.13;;;3.83;;
81901;SDS011;71369;50.796;3.290;2024-01-30T09:34:40;4.03;;;1.33;;
81901;SDS011;71369;50.796;3.290;2024-01-30T09:37:06;5.28;;;1.70;;
81901;SDS011;71369;50.796;3.290;2024-01-30T09:39:32;5.45;;;1.55;;
81901;SDS011;71369;50.796;3.290;2024-01-30T09:42:18;3.75;;;1.48;;
81901;SDS011;71369;50.796;3.290;2024-01-30T09:44:51;1.35;;;1.10;;
81901;SDS011;71369;50.796;3.290;2024-01-30T09:47:18;3.28;;;1.25;;
81901;SDS011;71369;50.796;3.290;2024-01-30T09:49:44;4.07;;;1.33;;
81901;SDS011;71369;50.796;3.290;2024-01-30T09:52:10;3.83;;;0.98;;
81901;SDS011;71369;50.796;3.290;2024-01-30T09:54:37;8.40;;;2.22;;
81901;SDS011;71369;50.796;3.290;2024-01-30T09:57:04;4.80;;;1.33;;
81901;SDS011;71369;50.796;3.290;2024-01-30T09:59:30;2.33;;;1.15;;
81901;SDS011;71369;50.796;3.290;2024-01-30T10:01:57;7.93;;;2.30;;
81901;SDS011;71369;50.796;3.290;2024-01-30T10:04:22;1.77;;;1.17;;
81901;SDS011;71369;50.796;3.290;2024-01-30T10:06:48;3.88;;;1.10;;
81901;SDS011;71369;50.796;3.290;2024-01-30T10:09:15;9.18;;;2.03;;
81901;SDS011;71369;50.796;3.290;2024-01-30T10:11:41;5.50;;;1.23;;
81901;SDS011;71369;50.796;3.290;2024-01-30T10:14:07;7.35;;;1.63;;
81901;SDS011;71369;50.796;3.290;2024-01-30T10:16:34;5.75;;;1.20;;
81901;SDS011;71369;50.796;3.290;2024-01-30T10:19:00;4.30;;;1.15;;
81901;SDS011;71369;50.796;3.290;2024-01-30T10:21:25;3.47;;;1.50;;
81901;SDS011;71369;50.796;3.290;2024-01-30T10:23:51;3.25;;;1.20;;
81901;SDS011;71369;50.796;3.290;2024-01-30T10:26:17;4.22;;;0.90;;
81901;SDS011;71369;50.796;3.290;2024-01-30T10:28:43;3.47;;;1.00;;
81901;SDS011;71369;50.796;3.290;2024-01-30T10:31:09;4.32;;;1.38;;
81901;SDS011;71369;50.796;3.290;2024-01-30T10:33:34;7.20;;;1.30;;
81901;SDS011;71369;50.796;3.290;2024-01-30T10:36:04;5.97;;;1.98;;
81901;SDS011;71369;50.796;3.290;2024-01-30T10:38:31;3.60;;;1.30;;
81901;SDS011;71369;50.796;3.290;2024-01-30T10:40:58;4.65;;;1.20;;
81901;SDS011;71369;50.796;3.290;2024-01-30T10:43:32;2.28;;;1.10;;
81901;SDS011;71369;50.796;3.290;2024-01-30T10:46:07;4.82;;;1.13;;
81901;SDS011;71369;50.796;3.290;2024-01-30T10:49:01;2.30;;;1.03;;
81901;SDS011;71369;50.796;3.290;2024-01-30T10:51:28;5.90;;;1.10;;
81901;SDS011;71369;50.796;3.290;2024-01-30T10:53:56;3.15;;;1.25;;
81901;SDS011;71369;50.796;3.290;2024-01-30T10:56:22;4.32;;;1.58;;
81901;SDS011;71369;50.796;3.290;2024-01-30T10:58:52;1.50;;;1.20;;
81901;SDS011;71369;50.796;3.290;2024-01-30T11:01:20;5.82;;;1.83;;
81901;SDS011;71369;50.796;3.290;2024-01-30T11:03:52;5.88;;;1.40;;
81901;SDS011;71369;50.796;3.290;2024-01-30T11:06:21;14.20;;;3.10;;
81901;SDS011;71369;50.796;3.290;2024-01-30T11:09:04;4.43;;;1.23;;
81901;SDS011;71369;50.796;3.290;2024-01-30T11:14:26;3.42;;;1.15;;
81901;SDS011;71369;50.796;3.290;2024-01-30T11:16:56;5.03;;;2.08;;
81901;SDS011;71369;50.796;3.290;2024-01-30T11:19:23;4.10;;;1.85;;
81901;SDS011;71369;50.796;3.290;2024-01-30T11:21:51;3.42;;;1.20;;
81901;SDS011;71369;50.796;3.290;2024-01-30T11:24:21;5.05;;;1.13;;
81901;SDS011;71369;50.796;3.290;2024-01-30T11:26:58;4.88;;;1.10;;
81901;SDS011;71369;50.796;3.290;2024-01-30T11:29:27;7.70;;;1.30;;
81901;SDS011;71369;50.796;3.290;2024-01-30T11:31:57;1.85;;;1.02;;
81901;SDS011;71369;50.796;3.290;2024-01-30T11:34:24;1.20;;;0.85;;
81901;SDS011;71369;50.796;3.290;2024-01-30T11:36:55;2.85;;;0.88;;
81901;SDS011;71369;50.796;3.290;2024-01-30T11:39:27;6.28;;;1.27;;
81901;SDS011;71369;50.796;3.290;2024-01-30T11:41:54;4.50;;;0.90;;
81901;SDS011;71369;50.796;3.290;2024-01-30T11:44:20;2.17;;;0.93;;
81901;SDS011;71369;50.796;3.290;2024-01-30T11:46:47;7.05;;;1.23;;
81901;SDS011;71369;50.796;3.290;2024-01-30T11:49:14;4.68;;;1.10;;
81901;SDS011;71369;50.796;3.290;2024-01-30T11:51:39;3.65;;;1.35;;
81901;SDS011;71369;50.796;3.290;2024-01-30T11:54:05;9.63;;;1.33;;
81901;SDS011;71369;50.796;3.290;2024-01-30T11:56:32;6.55;;;1.40;;
81901;SDS011;71369;50.796;3.290;2024-01-30T11:58:58;9.07;;;2.00;;
81901;SDS011;71369;50.796;3.290;2024-01-30T12:01:25;4.03;;;1.20;;
81901;SDS011;71369;50.796;3.290;2024-01-30T12:03:52;2.60;;;1.30;;
81901;SDS011;71369;50.796;3.290;2024-01-30T12:06:17;10.15;;;2.72;;
81901;SDS011;71369;50.796;3.290;2024-01-30T12:08:55;6.35;;;1.25;;
81901;SDS011;71369;50.796;3.290;2024-01-30T12:11:23;4.95;;;1.15;;
81901;SDS011;71369;50.796;3.290;2024-01-30T12:13:49;5.68;;;1.30;;
81901;SDS011;71369;50.796;3.290;2024-01-30T12:16:16;5.38;;;1.45;;
81901;SDS011;71369;50.796;3.290;2024-01-30T12:18:42;3.80;;;1.10;;
81901;SDS011;71369;50.796;3.290;2024-01-30T12:21:08;2.97;;;1.45;;
81901;SDS011;71369;50.796;3.290;2024-01-30T12:23:34;6.18;;;1.30;;
81901;SDS011;71369;50.796;3.290;2024-01-30T12:26:00;5.63;;;1.30;;
81901;SDS011;71369;50.796;3.290;2024-01-30T12:28:29;2.65;;;1.80;;
81901;SDS011;71369;50.796;3.290;2024-01-30T12:31:01;4.30;;;1.70;;
81901;SDS011;71369;50.796;3.290;2024-01-30T12:33:28;3.33;;;1.10;;
81901;SDS011;71369;50.796;3.290;2024-01-30T12:35:57;6.53;;;1.27;;
81901;SDS011;71369;50.796;3.290;2024-01-30T12:38:26;1.45;;;0.90;;
81901;SDS011;71369;50.796;3.290;2024-01-30T12:40:55;6.07;;;1.27;;
81901;SDS011;71369;50.796;3.290;2024-01-30T12:43:22;8.27;;;2.05;;
81901;SDS011;71369;50.796;3.290;2024-01-30T12:45:49;3.63;;;1.30;;
81901;SDS011;71369;50.796;3.290;2024-01-30T12:48:15;5.60;;;1.33;;
81901;SDS011;71369;50.796;3.290;2024-01-30T12:50:41;5.35;;;1.27;;
81901;SDS011;71369;50.796;3.290;2024-01-30T12:53:07;5.35;;;1.40;;
81901;SDS011;71369;50.796;3.290;2024-01-30T12:55:37;4.38;;;1.27;;
81901;SDS011;71369;50.796;3.290;2024-01-30T12:58:03;2.75;;;1.02;;
81901;SDS011;71369;50.796;3.290;2024-01-30T13:00:29;3.25;;;1.00;;
81901;SDS011;71369;50.796;3.290;2024-01-30T13:02:55;9.20;;;1.38;;
81901;SDS011;71369;50.796;3.290;2024-01-30T13:05:20;5.30;;;1.17;;
81901;SDS011;71369;50.796;3.290;2024-01-30T13:07:47;1.75;;;0.95;;
81901;SDS011;71369;50.796;3.290;2024-01-30T13:10:12;4.57;;;1.25;;
81901;SDS011;71369;50.796;3.290;2024-01-30T13:12:38;6.07;;;1.58;;
81901;SDS011;71369;50.796;3.290;2024-01-30T13:15:04;3.38;;;1.10;;
81901;SDS011;71369;50.796;3.290;2024-01-30T13:17:30;1.98;;;1.10;;
81901;SDS011;71369;50.796;3.290;2024-01-30T13:19:57;14.25;;;2.63;;
81901;SDS011;71369;50.796;3.290;2024-01-30T13:22:23;4.47;;;1.08;;
81901;SDS011;71369;50.796;3.290;2024-01-30T13:24:49;2.90;;;1.63;;
81901;SDS011;71369;50.796;3.290;2024-01-30T13:27:15;1.45;;;1.02;;
81901;SDS011;71369;50.796;3.290;2024-01-30T13:29:42;3.30;;;1.00;;
81901;SDS011;71369;50.796;3.290;2024-01-30T13:32:08;6.45;;;1.70;;
81901;SDS011;71369;50.796;3.290;2024-01-30T13:34:33;2.08;;;1.02;;
81901;SDS011;71369;50.796;3.290;2024-01-30T13:36:59;5.32;;;0.95;;
81901;SDS011;71369;50.796;3.290;2024-01-30T13:39:25;11.85;;;1.35;;
81901;SDS011;71369;50.796;3.290;2024-01-30T13:41:50;2.45;;;1.20;;
81901;SDS011;71369;50.796;3.290;2024-01-30T13:44:16;2.25;;;1.00;;
81901;SDS011;71369;50.796;3.290;2024-01-30T13:46:43;3.58;;;1.10;;
81901;SDS011;71369;50.796;3.290;2024-01-30T13:49:09;7.82;;;1.30;;
81901;SDS011;71369;50.796;3.290;2024-01-30T13:51:35;2.92;;;1.20;;
81901;SDS011;71369;50.796;3.290;2024-01-30T13:54:01;2.38;;;1.23;;
81901;SDS011;71369;50.796;3.290;2024-01-30T13:56:27;3.50;;;1.25;;
81901;SDS011;71369;50.796;3.290;2024-01-30T13:58:53;2.30;;;1.38;;
81901;SDS011;71369;50.796;3.290;2024-01-30T14:01:20;4.57;;;1.30;;
81901;SDS011;71369;50.796;3.290;2024-01-30T14:03:46;6.30;;;1.40;;
81901;SDS011;71369;50.796;3.290;2024-01-30T14:06:12;4.10;;;1.38;;
81901;SDS011;71369;50.796;3.290;2024-01-30T14:08:38;2.35;;;1.50;;
81901;SDS011;71369;50.796;3.290;2024-01-30T14:11:04;5.80;;;1.48;;
81901;SDS011;71369;50.796;3.290;2024-01-30T14:13:30;4.90;;;1.50;;
81901;SDS011;71369;50.796;3.290;2024-01-30T14:15:57;8.00;;;2.10;;
81901;SDS011;71369;50.796;3.290;2024-01-30T14:18:24;5.47;;;1.42;;
81901;SDS011;71369;50.796;3.290;2024-01-30T14:20:50;10.73;;;1.70;;
81901;SDS011;71369;50.796;3.290;2024-01-30T14:23:17;4.40;;;1.92;;
81901;SDS011;71369;50.796;3.290;2024-01-30T14:25:44;7.25;;;2.80;;
81901;SDS011;71369;50.796;3.290;2024-01-30T14:28:09;7.53;;;1.90;;
81901;SDS011;71369;50.796;3.290;2024-01-30T14:30:35;7.13;;;1.77;;
81901;SDS011;71369;50.796;3.290;2024-01-30T14:33:01;5.05;;;1.63;;
81901;SDS011;71369;50.796;3.290;2024-01-30T14:35:27;9.40;;;2.40;;
81901;SDS011;71369;50.796;3.290;2024-01-30T14:37:53;3.83;;;1.80;;
81901;SDS011;71369;50.796;3.290;2024-01-30T14:40:19;5.47;;;1.85;;
81901;SDS011;71369;50.796;3.290;2024-01-30T14:42:45;12.07;;;2.03;;
81901;SDS011;71369;50.796;3.290;2024-01-30T14:45:11;8.50;;;1.85;;
81901;SDS011;71369;50.796;3.290;2024-01-30T14:47:37;3.70;;;2.10;;
81901;SDS011;71369;50.796;3.290;2024-01-30T14:50:03;6.90;;;2.50;;
81901;SDS011;71369;50.796;3.290;2024-01-30T14:52:30;8.13;;;2.17;;
81901;SDS011;71369;50.796;3.290;2024-01-30T14:54:56;6.07;;;2.03;;
81901;SDS011;71369;50.796;3.290;2024-01-30T14:57:23;6.97;;;2.25;;
81901;SDS011;71369;50.796;3.290;2024-01-30T14:59:50;10.57;;;2.30;;
81901;SDS011;71369;50.796;3.290;2024-01-30T15:02:15;13.30;;;2.42;;
81901;SDS011;71369;50.796;3.290;2024-01-30T15:04:41;18.63;;;2.80;;
81901;SDS011;71369;50.796;3.290;2024-01-30T15:07:07;14.32;;;2.95;;
81901;SDS011;71369;50.796;3.290;2024-01-30T15:09:33;7.18;;;3.63;;
81901;SDS011;71369;50.796;3.290;2024-01-30T15:11:59;10.82;;;3.85;;
81901;SDS011;71369;50.796;3.290;2024-01-30T15:14:25;9.27;;;3.20;;
81901;SDS011;71369;50.796;3.290;2024-01-30T15:16:51;6.60;;;3.22;;
81901;SDS011;71369;50.796;3.290;2024-01-30T15:19:16;8.00;;;2.72;;
81901;SDS011;71369;50.796;3.290;2024-01-30T15:21:42;7.05;;;2.90;;
81901;SDS011;71369;50.796;3.290;2024-01-30T15:24:08;6.53;;;2.60;;
81901;SDS011;71369;50.796;3.290;2024-01-30T15:26:33;13.90;;;3.60;;
81901;SDS011;71369;50.796;3.290;2024-01-30T15:28:59;6.25;;;2.40;;
81901;SDS011;71369;50.796;3.290;2024-01-30T15:31:25;8.38;;;2.63;;
81901;SDS011;71369;50.796;3.290;2024-01-30T15:33:51;5.90;;;2.80;;
81901;SDS011;71369;50.796;3.290;2024-01-30T15:36:16;6.35;;;2.88;;
81901;SDS011;71369;50.796;3.290;2024-01-30T15:38:42;8.88;;;2.67;;
81901;SDS011;71369;50.796;3.290;2024-01-30T15:41:08;8.38;;;3.10;;
81901;SDS011;71369;50.796;3.290;2024-01-30T15:43:34;5.38;;;2.20;;
81901;SDS011;71369;50.796;3.290;2024-01-30T15:46:01;7.38;;;2.30;;
81901;SDS011;71369;50.796;3.290;2024-01-30T15:48:27;6.43;;;2.53;;
81901;SDS011;71369;50.796;3.290;2024-01-30T15:50:53;5.22;;;2.20;;
81901;SDS011;71369;50.796;3.290;2024-01-30T15:53:20;10.63;;;2.72;;
81901;SDS011;71369;50.796;3.290;2024-01-30T15:55:47;6.68;;;3.47;;
81901;SDS011;71369;50.796;3.290;2024-01-30T15:58:13;7.20;;;2.90;;
81901;SDS011;71369;50.796;3.290;2024-01-30T16:00:39;13.60;;;2.92;;
81901;SDS011;71369;50.796;3.290;2024-01-30T16:03:05;7.88;;;2.78;;
81901;SDS011;71369;50.796;3.290;2024-01-30T16:05:31;10.20;;;2.38;;
81901;SDS011;71369;50.796;3.290;2024-01-30T16:07:57;6.03;;;2.58;;
81901;SDS011;71369;50.796;3.290;2024-01-30T16:10:23;4.47;;;2.60;;
81901;SDS011;71369;50.796;3.290;2024-01-30T16:12:49;6.22;;;2.53;;
81901;SDS011;71369;50.796;3.290;2024-01-30T16:15:15;4.65;;;2.25;;
81901;SDS011;71369;50.796;3.290;2024-01-30T16:17:43;11.88;;;2.60;;
81901;SDS011;71369;50.796;3.290;2024-01-30T16:20:09;7.35;;;2.75;;
81901;SDS011;71369;50.796;3.290;2024-01-30T16:22:35;5.90;;;2.78;;
81901;SDS011;71369;50.796;3.290;2024-01-30T16:25:01;6.75;;;2.75;;
81901;SDS011;71369;50.796;3.290;2024-01-30T16:27:29;7.22;;;3.38;;
81901;SDS011;71369;50.796;3.290;2024-01-30T16:29:55;7.68;;;2.67;;
81901;SDS011;71369;50.796;3.290;2024-01-30T16:32:20;4.40;;;2.50;;
81901;SDS011;71369;50.796;3.290;2024-01-30T16:34:46;8.25;;;3.25;;
81901;SDS011;71369;50.796;3.290;2024-01-30T16:37:12;8.75;;;3.35;;
81901;SDS011;71369;50.796;3.290;2024-01-30T16:39:38;3.25;;;2.47;;
81901;SDS011;71369;50.796;3.290;2024-01-30T16:42:03;8.95;;;3.22;;
81901;SDS011;71369;50.796;3.290;2024-01-30T16:44:31;5.45;;;2.55;;
81901;SDS011;71369;50.796;3.290;2024-01-30T16:46:57;5.20;;;3.17;;
81901;SDS011;71369;50.796;3.290;2024-01-30T16:49:23;7.78;;;3.03;;
81901;SDS011;71369;50.796;3.290;2024-01-30T16:51:49;7.25;;;3.00;;
81901;SDS011;71369;50.796;3.290;2024-01-30T16:54:15;7.10;;;3.00;;
81901;SDS011;71369;50.796;3.290;2024-01-30T16:56:40;5.55;;;2.70;;
81901;SDS011;71369;50.796;3.290;2024-01-30T16:59:13;9.95;;;3.00;;
81901;SDS011;71369;50.796;3.290;2024-01-30T17:01:40;9.02;;;2.97;;
81901;SDS011;71369;50.796;3.290;2024-01-30T17:04:08;7.20;;;2.72;;
81901;SDS011;71369;50.796;3.290;2024-01-30T17:06:34;5.22;;;2.33;;
81901;SDS011;71369;50.796;3.290;2024-01-30T17:08:59;6.70;;;2.38;;
81901;SDS011;71369;50.796;3.290;2024-01-30T17:11:25;4.45;;;2.47;;
81901;SDS011;71369;50.796;3.290;2024-01-30T17:13:51;4.10;;;2.60;;
81901;SDS011;71369;50.796;3.290;2024-01-30T17:16:17;7.57;;;2.95;;
81901;SDS011;71369;50.796;3.290;2024-01-30T17:18:42;7.43;;;3.05;;
81901;SDS011;71369;50.796;3.290;2024-01-30T17:21:15;5.50;;;2.78;;
81901;SDS011;71369;50.796;3.290;2024-01-30T17:23:42;8.32;;;2.97;;
81901;SDS011;71369;50.796;3.290;2024-01-30T17:26:08;8.27;;;4.00;;
81901;SDS011;71369;50.796;3.290;2024-01-30T17:28:35;8.02;;;3.13;;
81901;SDS011;71369;50.796;3.290;2024-01-30T17:31:01;7.80;;;2.95;;
81901;SDS011;71369;50.796;3.290;2024-01-30T17:33:27;3.53;;;2.70;;
81901;SDS011;71369;50.796;3.290;2024-01-30T17:35:53;6.75;;;2.97;;
81901;SDS011;71369;50.796;3.290;2024-01-30T17:38:19;4.50;;;3.10;;
81901;SDS011;71369;50.796;3.290;2024-01-30T17:40:45;8.75;;;3.22;;
81901;SDS011;71369;50.796;3.290;2024-01-30T17:43:11;5.70;;;3.35;;
81901;SDS011;71369;50.796;3.290;2024-01-30T17:45:37;6.25;;;3.22;;
81901;SDS011;71369;50.796;3.290;2024-01-30T17:48:04;4.13;;;3.00;;
81901;SDS011;71369;50.796;3.290;2024-01-30T17:50:30;7.85;;;3.10;;
81901;SDS011;71369;50.796;3.290;2024-01-30T17:52:56;8.57;;;3.35;;
81901;SDS011;71369;50.796;3.290;2024-01-30T17:55:22;5.18;;;3.55;;
81901;SDS011;71369;50.796;3.290;2024-01-30T17:57:49;4.85;;;3.40;;
81901;SDS011;71369;50.796;3.290;2024-01-30T18:00:14;6.75;;;4.10;;
81901;SDS011;71369;50.796;3.290;2024-01-30T18:02:42;9.75;;;3.53;;
81901;SDS011;71369;50.796;3.290;2024-01-30T18:05:12;5.47;;;3.55;;
81901;SDS011;71369;50.796;3.290;2024-01-30T18:07:40;6.97;;;3.35;;
81901;SDS011;71369;50.796;3.290;2024-01-30T18:10:06;5.68;;;3.30;;
81901;SDS011;71369;50.796;3.290;2024-01-30T18:12:33;6.45;;;3.90;;
81901;SDS011;71369;50.796;3.290;2024-01-30T18:15:00;6.13;;;3.55;;
81901;SDS011;71369;50.796;3.290;2024-01-30T18:17:26;5.28;;;3.70;;
81901;SDS011;71369;50.796;3.290;2024-01-30T18:19:55;7.47;;;3.65;;
81901;SDS011;71369;50.796;3.290;2024-01-30T18:22:21;8.75;;;4.43;;
81901;SDS011;71369;50.796;3.290;2024-01-30T18:24:47;7.70;;;3.83;;
81901;SDS011;71369;50.796;3.290;2024-01-30T18:27:13;8.38;;;3.80;;
81901;SDS011;71369;50.796;3.290;2024-01-30T18:29:39;9.23;;;3.90;;
81901;SDS011;71369;50.796;3.290;2024-01-30T18:32:05;8.63;;;4.00;;
81901;SDS011;71369;50.796;3.290;2024-01-30T18:34:31;5.70;;;3.90;;
81901;SDS011;71369;50.796;3.290;2024-01-30T18:36:57;8.93;;;4.20;;
81901;SDS011;71369;50.796;3.290;2024-01-30T18:39:25;10.05;;;4.72;;
81901;SDS011;71369;50.796;3.290;2024-01-30T18:41:51;7.05;;;4.22;;
81901;SDS011;71369;50.796;3.290;2024-01-30T18:44:17;5.95;;;4.32;;
81901;SDS011;71369;50.796;3.290;2024-01-30T18:46:43;12.32;;;5.07;;
81901;SDS011;71369;50.796;3.290;2024-01-30T18:49:08;13.23;;;6.00;;
81901;SDS011;71369;50.796;3.290;2024-01-30T18:51:34;8.43;;;4.88;;
81901;SDS011;71369;50.796;3.290;2024-01-30T18:54:00;8.32;;;4.80;;
81901;SDS011;71369;50.796;3.290;2024-01-30T18:56:25;7.57;;;4.43;;
81901;SDS011;71369;50.796;3.290;2024-01-30T18:58:51;12.20;;;5.10;;
81901;SDS011;71369;50.796;3.290;2024-01-30T19:01:17;8.32;;;4.20;;
81901;SDS011;71369;50.796;3.290;2024-01-30T19:03:44;8.00;;;4.88;;
81901;SDS011;71369;50.796;3.290;2024-01-30T19:06:11;7.95;;;5.07;;
81901;SDS011;71369;50.796;3.290;2024-01-30T19:08:37;8.32;;;4.57;;
81901;SDS011;71369;50.796;3.290;2024-01-30T19:11:03;6.82;;;4.40;;
81901;SDS011;71369;50.796;3.290;2024-01-30T19:13:29;9.23;;;4.95;;
81901;SDS011;71369;50.796;3.290;2024-01-30T19:15:55;11.13;;;5.05;;
81901;SDS011;71369;50.796;3.290;2024-01-30T19:18:21;8.73;;;5.15;;
81901;SDS011;71369;50.796;3.290;2024-01-30T19:20:47;7.70;;;4.65;;
81901;SDS011;71369;50.796;3.290;2024-01-30T19:23:14;13.38;;;5.18;;
81901;SDS011;71369;50.796;3.290;2024-01-30T19:25:41;11.70;;;6.03;;
81901;SDS011;71369;50.796;3.290;2024-01-30T19:28:07;9.15;;;6.13;;
81901;SDS011;71369;50.796;3.290;2024-01-30T19:30:34;13.80;;;5.97;;
81901;SDS011;71369;50.796;3.290;2024-01-30T19:33:00;10.95;;;5.78;;
81901;SDS011;71369;50.796;3.290;2024-01-30T19:35:25;11.55;;;6.15;;
81901;SDS011;71369;50.796;3.290;2024-01-30T19:37:51;9.25;;;6.35;;
81901;SDS011;71369;50.796;3.290;2024-01-30T19:40:18;11.35;;;5.55;;
81901;SDS011;71369;50.796;3.290;2024-01-30T19:42:43;7.70;;;4.93;;
81901;SDS011;71369;50.796;3.290;2024-01-30T19:45:09;9.05;;;5.80;;
81901;SDS011;71369;50.796;3.290;2024-01-30T19:47:36;10.85;;;6.55;;
81901;SDS011;71369;50.796;3.290;2024-01-30T19:50:02;12.07;;;6.00;;
81901;SDS011;71369;50.796;3.290;2024-01-30T19:52:29;10.73;;;7.22;;
81901;SDS011;71369;50.796;3.290;2024-01-30T19:54:55;13.10;;;6.88;;
81901;SDS011;71369;50.796;3.290;2024-01-30T19:57:21;13.90;;;8.05;;
81901;SDS011;71369;50.796;3.290;2024-01-30T19:59:46;16.38;;;8.18;;
81901;SDS011;71369;50.796;3.290;2024-01-30T20:02:12;18.20;;;8.00;;
81901;SDS011;71369;50.796;3.290;2024-01-30T20:04:43;12.02;;;7.95;;
81901;SDS011;71369;50.796;3.290;2024-01-30T20:07:10;12.75;;;7.35;;
81901;SDS011;71369;50.796;3.290;2024-01-30T20:09:36;11.02;;;6.55;;
81901;SDS011;71369;50.796;3.290;2024-01-30T20:12:03;10.30;;;7.28;;
81901;SDS011;71369;50.796;3.290;2024-01-30T20:14:29;10.98;;;6.90;;
81901;SDS011;71369;50.796;3.290;2024-01-30T20:16:54;11.18;;;6.95;;
81901;SDS011;71369;50.796;3.290;2024-01-30T20:19:21;13.40;;;6.80;;
81901;SDS011;71369;50.796;3.290;2024-01-30T20:21:47;14.05;;;7.05;;
81901;SDS011;71369;50.796;3.290;2024-01-30T20:24:13;11.68;;;6.97;;
81901;SDS011;71369;50.796;3.290;2024-01-30T20:26:39;13.43;;;7.68;;
81901;SDS011;71369;50.796;3.290;2024-01-30T20:29:05;13.65;;;6.57;;
81901;SDS011;71369;50.796;3.290;2024-01-30T20:31:32;11.48;;;6.25;;
81901;SDS011;71369;50.796;3.290;2024-01-30T20:34:04;13.45;;;6.93;;
81901;SDS011;71369;50.796;3.290;2024-01-30T20:38:55;13.02;;;7.25;;
81901;SDS011;71369;50.796;3.290;2024-01-30T20:41:21;12.32;;;6.72;;
81901;SDS011;71369;50.796;3.290;2024-01-30T20:43:47;10.60;;;6.57;;
81901;SDS011;71369;50.796;3.290;2024-01-30T20:46:12;11.68;;;7.35;;
81901;SDS011;71369;50.796;3.290;2024-01-30T20:48:39;13.65;;;7.78;;
81901;SDS011;71369;50.796;3.290;2024-01-30T20:51:05;13.70;;;7.15;;
81901;SDS011;71369;50.796;3.290;2024-01-30T20:53:32;10.90;;;7.25;;
81901;SDS011;71369;50.796;3.290;2024-01-30T20:55:58;14.57;;;6.20;;
81901;SDS011;71369;50.796;3.290;2024-01-30T20:58:24;14.60;;;6.72;;
81901;SDS011;71369;50.796;3.290;2024-01-30T21:00:50;10.63;;;6.68;;
81901;SDS011;71369;50.796;3.290;2024-01-30T21:03:16;13.40;;;6.80;;
81901;SDS011;71369;50.796;3.290;2024-01-30T21:05:41;12.95;;;7.22;;
81901;SDS011;71369;50.796;3.290;2024-01-30T21:08:07;13.48;;;7.47;;
81901;SDS011;71369;50.796;3.290;2024-01-30T21:10:33;10.68;;;7.20;;
81901;SDS011;71369;50.796;3.290;2024-01-30T21:13:00;12.65;;;7.47;;
81901;SDS011;71369;50.796;3.290;2024-01-30T21:15:26;14.85;;;7.45;;
81901;SDS011;71369;50.796;3.290;2024-01-30T21:17:51;13.35;;;7.28;;
81901;SDS011;71369;50.796;3.290;2024-01-30T21:20:17;11.68;;;7.40;;
81901;SDS011;71369;50.796;3.290;2024-01-30T21:22:43;11.75;;;7.53;;
81901;SDS011;71369;50.796;3.290;2024-01-30T21:25:09;14.73;;;7.43;;
81901;SDS011;71369;50.796;3.290;2024-01-30T21:27:34;12.45;;;8.25;;
81901;SDS011;71369;50.796;3.290;2024-01-30T21:30:06;15.07;;;8.43;;
81901;SDS011;71369;50.796;3.290;2024-01-30T21:32:35;11.52;;;7.45;;
81901;SDS011;71369;50.796;3.290;2024-01-30T21:35:02;15.63;;;7.60;;
81901;SDS011;71369;50.796;3.290;2024-01-30T21:37:31;15.23;;;7.80;;
81901;SDS011;71369;50.796;3.290;2024-01-30T21:40:00;14.57;;;7.80;;
81901;SDS011;71369;50.796;3.290;2024-01-30T21:42:28;16.10;;;8.40;;
81901;SDS011;71369;50.796;3.290;2024-01-30T21:44:54;13.90;;;8.15;;
81901;SDS011;71369;50.796;3.290;2024-01-30T21:47:21;14.48;;;8.43;;
81901;SDS011;71369;50.796;3.290;2024-01-30T21:49:48;15.30;;;8.98;;
81901;SDS011;71369;50.796;3.290;2024-01-30T21:52:14;14.43;;;8.98;;
81901;SDS011;71369;50.796;3.290;2024-01-30T21:54:39;11.90;;;8.45;;
81901;SDS011;71369;50.796;3.290;2024-01-30T21:57:06;17.25;;;8.77;;
81901;SDS011;71369;50.796;3.290;2024-01-30T21:59:32;16.80;;;8.48;;
81901;SDS011;71369;50.796;3.290;2024-01-30T22:01:58;15.10;;;9.15;;
81901;SDS011;71369;50.796;3.290;2024-01-30T22:04:24;13.77;;;8.35;;
81901;SDS011;71369;50.796;3.290;2024-01-30T22:06:50;18.10;;;9.57;;